sensor_id;sensor_type;location;lat;lon;timestamp;P1;durP1;ratioP1;P2;durP2;ratioP2
51036;SDS011;37064;59.346;18.058;2022-10-16T00:00:40;18.33;;;10.52;;
51036;SDS011;37064;59.346;18.058;2022-10-16T00:03:06;21.27;;;11.18;;
51036;SDS011;37064;59.346;18.058;2022-10-16T00:05:33;17.52;;;10.35;;
51036;SDS011;37064;59.346;18.058;2022-10-16T00:07:59;14.77;;;9.93;;
51036;SDS011;37064;59.346;18.058;2022-10-16T00:10:25;15.57;;;9.57;;
51036;SDS011;37064;59.346;18.058;2022-10-16T00:12:51;17.58;;;9.15;;
51036;SDS011;37064;59.346;18.058;2022-10-16T00:15:17;13.48;;;9.23;;
51036;SDS011;37064;59.346;18.058;2022-10-16T00:17:43;14.90;;;9.57;;
51036;SDS011;37064;59.346;18.058;2022-10-16T00:20:09;14.63;;;9.43;;
51036;SDS011;37064;59.346;18.058;2022-10-16T00:22:35;15.05;;;9.15;;
51036;SDS011;37064;59.346;18.058;2022-10-16T00:25:01;15.18;;;9.80;;
51036;SDS011;37064;59.346;18.058;2022-10-16T00:27:27;15.07;;;8.55;;
51036;SDS011;37064;59.346;18.058;2022-10-16T00:29:53;14.02;;;8.88;;
51036;SDS011;37064;59.346;18.058;2022-10-16T00:32:19;13.98;;;7.95;;
51036;SDS011;37064;59.346;18.058;2022-10-16T00:34:45;12.65;;;9.10;;
51036;SDS011;37064;59.346;18.058;2022-10-16T00:37:12;12.48;;;8.55;;
51036;SDS011;37064;59.346;18.058;2022-10-16T00:39:38;12.20;;;8.40;;
51036;SDS011;37064;59.346;18.058;2022-10-16T00:42:04;12.50;;;7.25;;
51036;SDS011;37064;59.346;18.058;2022-10-16T00:47:18;14.00;;;8.50;;
51036;SDS011;37064;59.346;18.058;2022-10-16T00:49:44;12.85;;;8.13;;
51036;SDS011;37064;59.346;18.058;2022-10-16T00:52:12;13.05;;;8.45;;
51036;SDS011;37064;59.346;18.058;2022-10-16T00:54:38;14.13;;;7.88;;
51036;SDS011;37064;59.346;18.058;2022-10-16T00:57:05;12.45;;;7.97;;
51036;SDS011;37064;59.346;18.058;2022-10-16T00:59:33;11.07;;;7.40;;
51036;SDS011;37064;59.346;18.058;2022-10-16T01:01:59;12.48;;;8.07;;
51036;SDS011;37064;59.346;18.058;2022-10-16T01:04:26;14.82;;;9.30;;
51036;SDS011;37064;59.346;18.058;2022-10-16T01:12:18;13.27;;;8.63;;
51036;SDS011;37064;59.346;18.058;2022-10-16T01:15:01;13.95;;;8.93;;
51036;SDS011;37064;59.346;18.058;2022-10-16T01:17:32;14.55;;;9.25;;
51036;SDS011;37064;59.346;18.058;2022-10-16T01:20:03;16.55;;;9.10;;
51036;SDS011;37064;59.346;18.058;2022-10-16T01:22:35;14.05;;;8.65;;
51036;SDS011;37064;59.346;18.058;2022-10-16T01:25:03;16.83;;;9.38;;
51036;SDS011;37064;59.346;18.058;2022-10-16T01:27:30;16.83;;;10.13;;
51036;SDS011;37064;59.346;18.058;2022-10-16T01:30:04;15.20;;;10.07;;
51036;SDS011;37064;59.346;18.058;2022-10-16T01:37:46;12.95;;;8.93;;
51036;SDS011;37064;59.346;18.058;2022-10-16T01:40:14;14.70;;;8.90;;
51036;SDS011;37064;59.346;18.058;2022-10-16T01:42:42;17.70;;;9.23;;
51036;SDS011;37064;59.346;18.058;2022-10-16T01:45:11;12.48;;;8.50;;
51036;SDS011;37064;59.346;18.058;2022-10-16T01:47:38;12.90;;;9.27;;
51036;SDS011;37064;59.346;18.058;2022-10-16T01:50:05;13.73;;;8.70;;
51036;SDS011;37064;59.346;18.058;2022-10-16T01:52:34;13.32;;;9.02;;
51036;SDS011;37064;59.346;18.058;2022-10-16T01:55:00;13.88;;;9.30;;
51036;SDS011;37064;59.346;18.058;2022-10-16T01:57:27;16.42;;;9.13;;
51036;SDS011;37064;59.346;18.058;2022-10-16T01:59:56;14.80;;;8.75;;
51036;SDS011;37064;59.346;18.058;2022-10-16T02:02:24;12.30;;;8.48;;
51036;SDS011;37064;59.346;18.058;2022-10-16T02:05:01;14.87;;;8.07;;
51036;SDS011;37064;59.346;18.058;2022-10-16T02:07:29;12.90;;;8.70;;
51036;SDS011;37064;59.346;18.058;2022-10-16T02:09:55;11.70;;;7.93;;
51036;SDS011;37064;59.346;18.058;2022-10-16T02:12:23;13.07;;;8.05;;
51036;SDS011;37064;59.346;18.058;2022-10-16T02:14:51;10.10;;;7.57;;
51036;SDS011;37064;59.346;18.058;2022-10-16T02:17:18;13.48;;;7.43;;
51036;SDS011;37064;59.346;18.058;2022-10-16T02:19:44;13.75;;;7.20;;
51036;SDS011;37064;59.346;18.058;2022-10-16T02:22:15;10.50;;;7.50;;
51036;SDS011;37064;59.346;18.058;2022-10-16T02:24:44;13.90;;;8.48;;
51036;SDS011;37064;59.346;18.058;2022-10-16T02:29:39;10.25;;;7.57;;
51036;SDS011;37064;59.346;18.058;2022-10-16T02:32:09;12.45;;;7.65;;
51036;SDS011;37064;59.346;18.058;2022-10-16T02:34:35;13.10;;;7.35;;
51036;SDS011;37064;59.346;18.058;2022-10-16T02:37:03;9.93;;;7.00;;
51036;SDS011;37064;59.346;18.058;2022-10-16T02:39:30;10.27;;;6.93;;
51036;SDS011;37064;59.346;18.058;2022-10-16T02:41:56;15.98;;;7.88;;
51036;SDS011;37064;59.346;18.058;2022-10-16T02:44:22;12.30;;;8.30;;
51036;SDS011;37064;59.346;18.058;2022-10-16T02:46:48;10.73;;;7.30;;
51036;SDS011;37064;59.346;18.058;2022-10-16T02:49:14;11.98;;;8.30;;
51036;SDS011;37064;59.346;18.058;2022-10-16T02:51:40;13.93;;;8.60;;
51036;SDS011;37064;59.346;18.058;2022-10-16T02:54:06;18.40;;;8.27;;
51036;SDS011;37064;59.346;18.058;2022-10-16T02:56:32;14.20;;;8.10;;
51036;SDS011;37064;59.346;18.058;2022-10-16T02:58:58;11.23;;;7.20;;
51036;SDS011;37064;59.346;18.058;2022-10-16T03:01:24;12.10;;;7.18;;
51036;SDS011;37064;59.346;18.058;2022-10-16T03:03:50;11.05;;;7.75;;
51036;SDS011;37064;59.346;18.058;2022-10-16T03:06:16;11.38;;;7.93;;
51036;SDS011;37064;59.346;18.058;2022-10-16T03:08:42;10.32;;;7.72;;
51036;SDS011;37064;59.346;18.058;2022-10-16T03:11:08;9.80;;;6.63;;
51036;SDS011;37064;59.346;18.058;2022-10-16T03:13:34;13.00;;;7.68;;
51036;SDS011;37064;59.346;18.058;2022-10-16T03:16:00;12.60;;;6.40;;
51036;SDS011;37064;59.346;18.058;2022-10-16T03:18:26;11.05;;;6.72;;
51036;SDS011;37064;59.346;18.058;2022-10-16T03:20:52;8.90;;;6.28;;
51036;SDS011;37064;59.346;18.058;2022-10-16T03:23:18;13.68;;;6.53;;
51036;SDS011;37064;59.346;18.058;2022-10-16T03:25:44;10.90;;;6.03;;
51036;SDS011;37064;59.346;18.058;2022-10-16T03:28:10;9.77;;;6.50;;
51036;SDS011;37064;59.346;18.058;2022-10-16T03:30:36;10.40;;;6.57;;
51036;SDS011;37064;59.346;18.058;2022-10-16T03:33:04;8.88;;;5.95;;
51036;SDS011;37064;59.346;18.058;2022-10-16T03:35:30;8.82;;;5.93;;
51036;SDS011;37064;59.346;18.058;2022-10-16T03:37:56;10.00;;;6.45;;
51036;SDS011;37064;59.346;18.058;2022-10-16T03:40:22;8.00;;;5.78;;
51036;SDS011;37064;59.346;18.058;2022-10-16T03:42:48;8.95;;;6.00;;
51036;SDS011;37064;59.346;18.058;2022-10-16T03:45:14;9.35;;;5.88;;
51036;SDS011;37064;59.346;18.058;2022-10-16T03:47:40;9.88;;;6.47;;
51036;SDS011;37064;59.346;18.058;2022-10-16T03:50:06;10.35;;;6.50;;
51036;SDS011;37064;59.346;18.058;2022-10-16T03:52:32;10.00;;;6.25;;
51036;SDS011;37064;59.346;18.058;2022-10-16T03:54:59;11.23;;;6.40;;
51036;SDS011;37064;59.346;18.058;2022-10-16T03:57:25;9.40;;;6.10;;
51036;SDS011;37064;59.346;18.058;2022-10-16T03:59:51;8.32;;;6.07;;
51036;SDS011;37064;59.346;18.058;2022-10-16T04:02:17;9.00;;;6.30;;
51036;SDS011;37064;59.346;18.058;2022-10-16T04:04:43;7.65;;;5.80;;
51036;SDS011;37064;59.346;18.058;2022-10-16T04:07:09;8.55;;;6.28;;
51036;SDS011;37064;59.346;18.058;2022-10-16T04:09:35;9.63;;;5.82;;
51036;SDS011;37064;59.346;18.058;2022-10-16T04:12:01;11.95;;;5.43;;
51036;SDS011;37064;59.346;18.058;2022-10-16T04:14:27;7.72;;;4.97;;
51036;SDS011;37064;59.346;18.058;2022-10-16T04:16:53;6.75;;;5.00;;
51036;SDS011;37064;59.346;18.058;2022-10-16T04:19:19;9.13;;;5.75;;
51036;SDS011;37064;59.346;18.058;2022-10-16T04:21:45;10.15;;;6.00;;
51036;SDS011;37064;59.346;18.058;2022-10-16T04:24:11;9.65;;;5.00;;
51036;SDS011;37064;59.346;18.058;2022-10-16T04:26:37;13.75;;;6.53;;
51036;SDS011;37064;59.346;18.058;2022-10-16T04:29:03;8.95;;;5.53;;
51036;SDS011;37064;59.346;18.058;2022-10-16T04:31:29;7.32;;;4.80;;
51036;SDS011;37064;59.346;18.058;2022-10-16T04:33:55;13.00;;;5.20;;
51036;SDS011;37064;59.346;18.058;2022-10-16T04:36:21;8.13;;;4.85;;
51036;SDS011;37064;59.346;18.058;2022-10-16T04:38:47;9.20;;;5.20;;
51036;SDS011;37064;59.346;18.058;2022-10-16T04:41:13;7.13;;;4.18;;
51036;SDS011;37064;59.346;18.058;2022-10-16T04:43:39;8.57;;;4.97;;
51036;SDS011;37064;59.346;18.058;2022-10-16T04:46:05;8.63;;;5.28;;
51036;SDS011;37064;59.346;18.058;2022-10-16T04:48:31;8.63;;;4.47;;
51036;SDS011;37064;59.346;18.058;2022-10-16T04:50:57;7.18;;;4.65;;
51036;SDS011;37064;59.346;18.058;2022-10-16T04:53:23;5.78;;;4.10;;
51036;SDS011;37064;59.346;18.058;2022-10-16T04:55:49;8.48;;;4.60;;
51036;SDS011;37064;59.346;18.058;2022-10-16T04:58:16;7.05;;;4.55;;
51036;SDS011;37064;59.346;18.058;2022-10-16T05:00:42;6.95;;;3.92;;
51036;SDS011;37064;59.346;18.058;2022-10-16T05:03:08;6.88;;;4.38;;
51036;SDS011;37064;59.346;18.058;2022-10-16T05:05:35;6.65;;;4.30;;
51036;SDS011;37064;59.346;18.058;2022-10-16T05:08:01;6.40;;;4.30;;
51036;SDS011;37064;59.346;18.058;2022-10-16T05:10:27;9.70;;;6.15;;
51036;SDS011;37064;59.346;18.058;2022-10-16T05:12:53;6.78;;;3.85;;
51036;SDS011;37064;59.346;18.058;2022-10-16T05:15:19;6.38;;;4.60;;
51036;SDS011;37064;59.346;18.058;2022-10-16T05:17:45;6.80;;;4.30;;
51036;SDS011;37064;59.346;18.058;2022-10-16T05:20:12;5.85;;;4.50;;
51036;SDS011;37064;59.346;18.058;2022-10-16T05:22:38;5.88;;;3.78;;
51036;SDS011;37064;59.346;18.058;2022-10-16T05:25:04;5.65;;;4.13;;
51036;SDS011;37064;59.346;18.058;2022-10-16T05:27:30;6.65;;;4.05;;
51036;SDS011;37064;59.346;18.058;2022-10-16T05:29:56;7.30;;;4.68;;
51036;SDS011;37064;59.346;18.058;2022-10-16T05:32:22;6.55;;;4.13;;
51036;SDS011;37064;59.346;18.058;2022-10-16T05:34:48;8.25;;;5.10;;
51036;SDS011;37064;59.346;18.058;2022-10-16T05:37:14;8.13;;;4.50;;
51036;SDS011;37064;59.346;18.058;2022-10-16T05:39:40;6.43;;;4.82;;
51036;SDS011;37064;59.346;18.058;2022-10-16T05:42:06;7.93;;;4.90;;
51036;SDS011;37064;59.346;18.058;2022-10-16T05:44:32;10.73;;;4.47;;
51036;SDS011;37064;59.346;18.058;2022-10-16T05:46:58;8.07;;;4.90;;
51036;SDS011;37064;59.346;18.058;2022-10-16T05:49:24;8.50;;;5.97;;
51036;SDS011;37064;59.346;18.058;2022-10-16T05:51:50;9.00;;;5.82;;
51036;SDS011;37064;59.346;18.058;2022-10-16T05:54:16;7.22;;;4.68;;
51036;SDS011;37064;59.346;18.058;2022-10-16T05:56:42;7.10;;;5.35;;
51036;SDS011;37064;59.346;18.058;2022-10-16T05:59:08;10.30;;;5.55;;
51036;SDS011;37064;59.346;18.058;2022-10-16T06:01:34;9.18;;;6.32;;
51036;SDS011;37064;59.346;18.058;2022-10-16T06:04:01;11.77;;;6.90;;
51036;SDS011;37064;59.346;18.058;2022-10-16T06:06:27;7.55;;;4.95;;
51036;SDS011;37064;59.346;18.058;2022-10-16T06:08:55;8.48;;;5.95;;
51036;SDS011;37064;59.346;18.058;2022-10-16T06:11:22;9.80;;;6.32;;
51036;SDS011;37064;59.346;18.058;2022-10-16T06:13:49;11.55;;;6.72;;
51036;SDS011;37064;59.346;18.058;2022-10-16T06:16:15;12.18;;;7.78;;
51036;SDS011;37064;59.346;18.058;2022-10-16T06:18:41;10.85;;;6.50;;
51036;SDS011;37064;59.346;18.058;2022-10-16T06:21:08;10.00;;;6.22;;
51036;SDS011;37064;59.346;18.058;2022-10-16T06:23:34;10.30;;;6.78;;
51036;SDS011;37064;59.346;18.058;2022-10-16T06:26:04;11.70;;;7.25;;
51036;SDS011;37064;59.346;18.058;2022-10-16T06:28:30;11.98;;;8.07;;
51036;SDS011;37064;59.346;18.058;2022-10-16T06:31:00;13.20;;;7.97;;
51036;SDS011;37064;59.346;18.058;2022-10-16T06:33:26;14.40;;;7.75;;
51036;SDS011;37064;59.346;18.058;2022-10-16T06:35:52;14.57;;;8.32;;
51036;SDS011;37064;59.346;18.058;2022-10-16T06:38:18;16.02;;;8.38;;
51036;SDS011;37064;59.346;18.058;2022-10-16T06:40:44;11.43;;;7.93;;
51036;SDS011;37064;59.346;18.058;2022-10-16T06:43:10;13.38;;;8.07;;
51036;SDS011;37064;59.346;18.058;2022-10-16T06:45:36;12.23;;;7.85;;
51036;SDS011;37064;59.346;18.058;2022-10-16T06:48:02;14.20;;;8.70;;
51036;SDS011;37064;59.346;18.058;2022-10-16T06:50:28;11.43;;;7.95;;
51036;SDS011;37064;59.346;18.058;2022-10-16T06:52:54;13.52;;;8.68;;
51036;SDS011;37064;59.346;18.058;2022-10-16T06:55:20;15.52;;;9.00;;
51036;SDS011;37064;59.346;18.058;2022-10-16T06:57:46;16.83;;;9.20;;
51036;SDS011;37064;59.346;18.058;2022-10-16T07:00:13;14.45;;;8.48;;
51036;SDS011;37064;59.346;18.058;2022-10-16T07:02:39;13.70;;;7.90;;
51036;SDS011;37064;59.346;18.058;2022-10-16T07:05:05;13.02;;;8.32;;
51036;SDS011;37064;59.346;18.058;2022-10-16T07:07:31;14.63;;;8.07;;
51036;SDS011;37064;59.346;18.058;2022-10-16T07:09:57;13.65;;;8.65;;
51036;SDS011;37064;59.346;18.058;2022-10-16T07:12:23;14.13;;;8.63;;
51036;SDS011;37064;59.346;18.058;2022-10-16T07:14:49;15.38;;;8.60;;
51036;SDS011;37064;59.346;18.058;2022-10-16T07:17:17;11.48;;;7.57;;
51036;SDS011;37064;59.346;18.058;2022-10-16T07:19:44;13.35;;;8.30;;
51036;SDS011;37064;59.346;18.058;2022-10-16T07:22:10;12.13;;;7.80;;
51036;SDS011;37064;59.346;18.058;2022-10-16T07:24:36;10.70;;;8.18;;
51036;SDS011;37064;59.346;18.058;2022-10-16T07:27:02;11.27;;;7.25;;
51036;SDS011;37064;59.346;18.058;2022-10-16T07:29:28;11.43;;;7.22;;
51036;SDS011;37064;59.346;18.058;2022-10-16T07:31:54;9.98;;;6.80;;
51036;SDS011;37064;59.346;18.058;2022-10-16T07:34:20;8.52;;;6.07;;
51036;SDS011;37064;59.346;18.058;2022-10-16T07:36:47;9.15;;;6.63;;
51036;SDS011;37064;59.346;18.058;2022-10-16T07:39:13;8.63;;;6.20;;
51036;SDS011;37064;59.346;18.058;2022-10-16T07:41:39;9.32;;;6.45;;
51036;SDS011;37064;59.346;18.058;2022-10-16T07:44:05;11.23;;;6.30;;
51036;SDS011;37064;59.346;18.058;2022-10-16T07:46:31;11.88;;;6.65;;
51036;SDS011;37064;59.346;18.058;2022-10-16T07:48:59;9.20;;;5.47;;
51036;SDS011;37064;59.346;18.058;2022-10-16T07:51:25;11.55;;;5.90;;
51036;SDS011;37064;59.346;18.058;2022-10-16T07:53:51;5.63;;;4.13;;
51036;SDS011;37064;59.346;18.058;2022-10-16T07:56:18;8.40;;;5.28;;
51036;SDS011;37064;59.346;18.058;2022-10-16T07:58:44;7.97;;;4.22;;
51036;SDS011;37064;59.346;18.058;2022-10-16T08:01:11;6.63;;;4.10;;
51036;SDS011;37064;59.346;18.058;2022-10-16T08:03:38;7.40;;;4.60;;
51036;SDS011;37064;59.346;18.058;2022-10-16T08:06:04;7.72;;;5.00;;
51036;SDS011;37064;59.346;18.058;2022-10-16T08:08:30;7.10;;;4.30;;
51036;SDS011;37064;59.346;18.058;2022-10-16T08:10:56;8.23;;;4.68;;
51036;SDS011;37064;59.346;18.058;2022-10-16T08:13:22;6.68;;;3.80;;
51036;SDS011;37064;59.346;18.058;2022-10-16T08:15:48;8.35;;;5.18;;
51036;SDS011;37064;59.346;18.058;2022-10-16T08:18:14;8.70;;;4.40;;
51036;SDS011;37064;59.346;18.058;2022-10-16T08:20:41;10.80;;;4.28;;
51036;SDS011;37064;59.346;18.058;2022-10-16T08:23:07;6.20;;;3.80;;
51036;SDS011;37064;59.346;18.058;2022-10-16T08:25:35;6.85;;;3.38;;
51036;SDS011;37064;59.346;18.058;2022-10-16T08:28:03;6.97;;;4.05;;
51036;SDS011;37064;59.346;18.058;2022-10-16T08:30:30;5.78;;;3.50;;
51036;SDS011;37064;59.346;18.058;2022-10-16T08:32:56;6.75;;;4.18;;
51036;SDS011;37064;59.346;18.058;2022-10-16T08:35:23;5.03;;;3.58;;
51036;SDS011;37064;59.346;18.058;2022-10-16T08:37:49;5.32;;;3.67;;
51036;SDS011;37064;59.346;18.058;2022-10-16T08:40:19;5.72;;;3.50;;
51036;SDS011;37064;59.346;18.058;2022-10-16T08:45:20;9.32;;;3.85;;
51036;SDS011;37064;59.346;18.058;2022-10-16T08:50:14;4.18;;;3.22;;
51036;SDS011;37064;59.346;18.058;2022-10-16T08:52:43;5.03;;;3.33;;
51036;SDS011;37064;59.346;18.058;2022-10-16T08:57:51;4.63;;;3.30;;
51036;SDS011;37064;59.346;18.058;2022-10-16T09:00:17;8.23;;;3.55;;
51036;SDS011;37064;59.346;18.058;2022-10-16T09:08:10;4.80;;;3.10;;
51036;SDS011;37064;59.346;18.058;2022-10-16T09:10:47;7.55;;;3.38;;
51036;SDS011;37064;59.346;18.058;2022-10-16T09:13:27;7.85;;;3.15;;
51036;SDS011;37064;59.346;18.058;2022-10-16T09:18:50;5.38;;;2.72;;
51036;SDS011;37064;59.346;18.058;2022-10-16T09:23:49;4.68;;;3.03;;
51036;SDS011;37064;59.346;18.058;2022-10-16T09:26:16;7.05;;;3.03;;
51036;SDS011;37064;59.346;18.058;2022-10-16T09:28:43;3.78;;;2.83;;
51036;SDS011;37064;59.346;18.058;2022-10-16T09:31:12;4.35;;;2.92;;
51036;SDS011;37064;59.346;18.058;2022-10-16T09:33:39;5.40;;;2.50;;
51036;SDS011;37064;59.346;18.058;2022-10-16T09:36:06;6.63;;;2.60;;
51036;SDS011;37064;59.346;18.058;2022-10-16T09:38:33;3.53;;;1.90;;
51036;SDS011;37064;59.346;18.058;2022-10-16T09:41:01;5.30;;;2.50;;
51036;SDS011;37064;59.346;18.058;2022-10-16T09:43:39;6.13;;;3.17;;
51036;SDS011;37064;59.346;18.058;2022-10-16T09:46:07;6.70;;;2.80;;
51036;SDS011;37064;59.346;18.058;2022-10-16T09:48:36;3.60;;;2.30;;
51036;SDS011;37064;59.346;18.058;2022-10-16T09:51:03;6.55;;;2.83;;
51036;SDS011;37064;59.346;18.058;2022-10-16T09:53:39;6.53;;;2.47;;
51036;SDS011;37064;59.346;18.058;2022-10-16T09:56:06;7.90;;;2.70;;
51036;SDS011;37064;59.346;18.058;2022-10-16T09:58:32;6.20;;;2.20;;
51036;SDS011;37064;59.346;18.058;2022-10-16T10:00:58;6.03;;;2.70;;
51036;SDS011;37064;59.346;18.058;2022-10-16T10:03:37;5.13;;;2.47;;
51036;SDS011;37064;59.346;18.058;2022-10-16T10:06:16;4.55;;;2.65;;
51036;SDS011;37064;59.346;18.058;2022-10-16T10:08:53;6.90;;;2.80;;
51036;SDS011;37064;59.346;18.058;2022-10-16T10:11:35;8.68;;;2.50;;
51036;SDS011;37064;59.346;18.058;2022-10-16T10:16:47;5.65;;;2.72;;
51036;SDS011;37064;59.346;18.058;2022-10-16T10:19:14;4.53;;;3.00;;
51036;SDS011;37064;59.346;18.058;2022-10-16T10:21:40;5.30;;;2.60;;
51036;SDS011;37064;59.346;18.058;2022-10-16T10:24:10;4.40;;;2.75;;
51036;SDS011;37064;59.346;18.058;2022-10-16T10:26:36;8.35;;;2.92;;
51036;SDS011;37064;59.346;18.058;2022-10-16T10:36:42;4.70;;;2.67;;
51036;SDS011;37064;59.346;18.058;2022-10-16T10:54:38;4.57;;;2.03;;
51036;SDS011;37064;59.346;18.058;2022-10-16T11:03:35;6.78;;;2.40;;
51036;SDS011;37064;59.346;18.058;2022-10-16T11:08:21;7.75;;;2.53;;
51036;SDS011;37064;59.346;18.058;2022-10-16T11:10:54;6.60;;;2.72;;
51036;SDS011;37064;59.346;18.058;2022-10-16T11:13:25;5.15;;;2.17;;
51036;SDS011;37064;59.346;18.058;2022-10-16T11:15:52;5.88;;;2.30;;
51036;SDS011;37064;59.346;18.058;2022-10-16T11:18:25;6.95;;;2.25;;
51036;SDS011;37064;59.346;18.058;2022-10-16T11:20:57;8.43;;;2.65;;
51036;SDS011;37064;59.346;18.058;2022-10-16T11:23:25;10.10;;;2.58;;
51036;SDS011;37064;59.346;18.058;2022-10-16T11:25:51;4.88;;;2.10;;
51036;SDS011;37064;59.346;18.058;2022-10-16T11:30:46;9.15;;;2.55;;
51036;SDS011;37064;59.346;18.058;2022-10-16T11:35:47;5.68;;;2.00;;
51036;SDS011;37064;59.346;18.058;2022-10-16T11:40:41;9.45;;;2.13;;
51036;SDS011;37064;59.346;18.058;2022-10-16T11:43:14;4.65;;;2.33;;
51036;SDS011;37064;59.346;18.058;2022-10-16T11:45:51;6.90;;;2.42;;
51036;SDS011;37064;59.346;18.058;2022-10-16T11:50:56;5.97;;;2.00;;
51036;SDS011;37064;59.346;18.058;2022-10-16T11:53:45;6.00;;;2.67;;
51036;SDS011;37064;59.346;18.058;2022-10-16T11:56:13;7.85;;;2.35;;
51036;SDS011;37064;59.346;18.058;2022-10-16T11:58:43;6.17;;;2.00;;
51036;SDS011;37064;59.346;18.058;2022-10-16T12:08:58;5.60;;;2.53;;
51036;SDS011;37064;59.346;18.058;2022-10-16T12:16:38;5.10;;;2.08;;
51036;SDS011;37064;59.346;18.058;2022-10-16T12:19:12;5.90;;;2.45;;
51036;SDS011;37064;59.346;18.058;2022-10-16T12:21:38;7.22;;;2.13;;
51036;SDS011;37064;59.346;18.058;2022-10-16T12:24:05;3.63;;;1.90;;
51036;SDS011;37064;59.346;18.058;2022-10-16T12:26:32;5.68;;;1.98;;
51036;SDS011;37064;59.346;18.058;2022-10-16T12:29:18;6.65;;;2.17;;
51036;SDS011;37064;59.346;18.058;2022-10-16T12:31:47;6.67;;;2.23;;
51036;SDS011;37064;59.346;18.058;2022-10-16T12:34:20;4.70;;;2.33;;
51036;SDS011;37064;59.346;18.058;2022-10-16T12:36:47;6.60;;;2.40;;
51036;SDS011;37064;59.346;18.058;2022-10-16T12:39:23;4.63;;;2.65;;
51036;SDS011;37064;59.346;18.058;2022-10-16T12:42:02;5.90;;;2.83;;
51036;SDS011;37064;59.346;18.058;2022-10-16T12:46:55;5.03;;;2.65;;
51036;SDS011;37064;59.346;18.058;2022-10-16T12:49:22;6.28;;;2.13;;
51036;SDS011;37064;59.346;18.058;2022-10-16T12:51:50;3.10;;;1.77;;
51036;SDS011;37064;59.346;18.058;2022-10-16T12:54:17;8.00;;;2.03;;
51036;SDS011;37064;59.346;18.058;2022-10-16T12:56:50;3.55;;;1.80;;
51036;SDS011;37064;59.346;18.058;2022-10-16T13:04:42;4.07;;;1.70;;
51036;SDS011;37064;59.346;18.058;2022-10-16T13:07:22;3.85;;;1.73;;
51036;SDS011;37064;59.346;18.058;2022-10-16T13:12:22;4.65;;;1.80;;
51036;SDS011;37064;59.346;18.058;2022-10-16T13:15:01;3.35;;;1.73;;
51036;SDS011;37064;59.346;18.058;2022-10-16T13:17:39;7.72;;;2.60;;
51036;SDS011;37064;59.346;18.058;2022-10-16T13:28:09;6.05;;;3.05;;
51036;SDS011;37064;59.346;18.058;2022-10-16T13:31:09;3.33;;;1.80;;
51036;SDS011;37064;59.346;18.058;2022-10-16T13:33:32;4.57;;;2.08;;
51036;SDS011;37064;59.346;18.058;2022-10-16T13:35:59;6.00;;;1.98;;
51036;SDS011;37064;59.346;18.058;2022-10-16T13:38:26;5.15;;;2.10;;
51036;SDS011;37064;59.346;18.058;2022-10-16T13:43:18;7.22;;;2.17;;
51036;SDS011;37064;59.346;18.058;2022-10-16T13:45:55;3.50;;;2.20;;
51036;SDS011;37064;59.346;18.058;2022-10-16T13:48:21;6.60;;;2.75;;
51036;SDS011;37064;59.346;18.058;2022-10-16T13:50:57;8.43;;;2.35;;
51036;SDS011;37064;59.346;18.058;2022-10-16T13:53:23;3.78;;;1.90;;
51036;SDS011;37064;59.346;18.058;2022-10-16T13:55:49;7.75;;;2.03;;
51036;SDS011;37064;59.346;18.058;2022-10-16T13:58:15;4.22;;;1.92;;
51036;SDS011;37064;59.346;18.058;2022-10-16T14:01:01;5.45;;;1.80;;
51036;SDS011;37064;59.346;18.058;2022-10-16T14:03:27;4.95;;;1.55;;
51036;SDS011;37064;59.346;18.058;2022-10-16T14:06:00;3.08;;;1.40;;
51036;SDS011;37064;59.346;18.058;2022-10-16T14:08:27;5.68;;;1.70;;
51036;SDS011;37064;59.346;18.058;2022-10-16T14:10:55;22.98;;;2.95;;
51036;SDS011;37064;59.346;18.058;2022-10-16T14:13:43;5.45;;;1.58;;
51036;SDS011;37064;59.346;18.058;2022-10-16T14:16:09;4.80;;;1.77;;
51036;SDS011;37064;59.346;18.058;2022-10-16T14:18:35;3.30;;;1.35;;
51036;SDS011;37064;59.346;18.058;2022-10-16T14:21:06;5.20;;;1.73;;
51036;SDS011;37064;59.346;18.058;2022-10-16T14:23:36;4.22;;;1.42;;
51036;SDS011;37064;59.346;18.058;2022-10-16T14:28:35;4.82;;;1.35;;
51036;SDS011;37064;59.346;18.058;2022-10-16T14:31:02;5.20;;;1.73;;
51036;SDS011;37064;59.346;18.058;2022-10-16T14:38:40;3.78;;;1.55;;
51036;SDS011;37064;59.346;18.058;2022-10-16T14:41:06;3.47;;;1.63;;
51036;SDS011;37064;59.346;18.058;2022-10-16T14:43:33;6.13;;;1.70;;
51036;SDS011;37064;59.346;18.058;2022-10-16T14:46:00;5.90;;;1.65;;
51036;SDS011;37064;59.346;18.058;2022-10-16T14:48:27;4.80;;;1.50;;
51036;SDS011;37064;59.346;18.058;2022-10-16T14:50:54;7.97;;;1.65;;
51036;SDS011;37064;59.346;18.058;2022-10-16T14:53:20;6.75;;;1.73;;
51036;SDS011;37064;59.346;18.058;2022-10-16T14:55:46;3.90;;;1.70;;
51036;SDS011;37064;59.346;18.058;2022-10-16T14:58:17;5.70;;;2.25;;
51036;SDS011;37064;59.346;18.058;2022-10-16T15:00:44;6.68;;;1.90;;
51036;SDS011;37064;59.346;18.058;2022-10-16T15:03:10;6.03;;;1.63;;
51036;SDS011;37064;59.346;18.058;2022-10-16T15:05:36;6.72;;;1.55;;
51036;SDS011;37064;59.346;18.058;2022-10-16T15:08:02;3.45;;;1.80;;
51036;SDS011;37064;59.346;18.058;2022-10-16T15:10:32;5.28;;;1.92;;
51036;SDS011;37064;59.346;18.058;2022-10-16T15:12:59;4.43;;;2.08;;
51036;SDS011;37064;59.346;18.058;2022-10-16T15:15:31;4.47;;;1.98;;
51036;SDS011;37064;59.346;18.058;2022-10-16T15:17:58;3.22;;;1.48;;
51036;SDS011;37064;59.346;18.058;2022-10-16T15:20:26;7.63;;;2.55;;
51036;SDS011;37064;59.346;18.058;2022-10-16T15:22:53;8.00;;;2.30;;
51036;SDS011;37064;59.346;18.058;2022-10-16T15:27:45;10.40;;;3.22;;
51036;SDS011;37064;59.346;18.058;2022-10-16T15:30:11;167.63;;;38.53;;
51036;SDS011;37064;59.346;18.058;2022-10-16T15:32:37;31.70;;;7.93;;
51036;SDS011;37064;59.346;18.058;2022-10-16T15:35:03;19.88;;;6.45;;
51036;SDS011;37064;59.346;18.058;2022-10-16T15:37:29;10.15;;;2.70;;
51036;SDS011;37064;59.346;18.058;2022-10-16T15:39:55;2.75;;;1.15;;
51036;SDS011;37064;59.346;18.058;2022-10-16T15:42:21;2.83;;;1.00;;
51036;SDS011;37064;59.346;18.058;2022-10-16T15:44:47;4.15;;;1.30;;
51036;SDS011;37064;59.346;18.058;2022-10-16T15:47:15;8.50;;;1.80;;
51036;SDS011;37064;59.346;18.058;2022-10-16T15:49:41;2.35;;;0.93;;
51036;SDS011;37064;59.346;18.058;2022-10-16T15:52:07;6.88;;;1.20;;
51036;SDS011;37064;59.346;18.058;2022-10-16T15:54:33;4.38;;;1.42;;
51036;SDS011;37064;59.346;18.058;2022-10-16T15:56:59;7.35;;;2.72;;
51036;SDS011;37064;59.346;18.058;2022-10-16T15:59:25;27.83;;;9.93;;
51036;SDS011;37064;59.346;18.058;2022-10-16T16:01:51;11.70;;;5.40;;
51036;SDS011;37064;59.346;18.058;2022-10-16T16:04:17;8.75;;;2.90;;
51036;SDS011;37064;59.346;18.058;2022-10-16T16:06:43;6.10;;;1.55;;
51036;SDS011;37064;59.346;18.058;2022-10-16T16:09:10;6.70;;;2.10;;
51036;SDS011;37064;59.346;18.058;2022-10-16T16:11:36;1.65;;;0.95;;
51036;SDS011;37064;59.346;18.058;2022-10-16T16:14:04;2.67;;;1.10;;
51036;SDS011;37064;59.346;18.058;2022-10-16T16:16:30;6.40;;;1.75;;
51036;SDS011;37064;59.346;18.058;2022-10-16T16:19:01;5.43;;;1.75;;
51036;SDS011;37064;59.346;18.058;2022-10-16T16:21:27;8.52;;;3.25;;
51036;SDS011;37064;59.346;18.058;2022-10-16T16:23:54;5.90;;;1.98;;
51036;SDS011;37064;59.346;18.058;2022-10-16T16:26:23;6.03;;;1.70;;
51036;SDS011;37064;59.346;18.058;2022-10-16T16:28:51;3.20;;;1.48;;
51036;SDS011;37064;59.346;18.058;2022-10-16T16:31:17;3.38;;;1.20;;
51036;SDS011;37064;59.346;18.058;2022-10-16T16:33:43;5.13;;;1.42;;